Time;durP1;ratioP1;P1;durP2;ratioP2;P2;SDS_P1;SDS_P2;PMS_P1;PMS_P2;Temp;Humidity;BMP_temperature;BMP_pressure;BME280_temperature;BME280_humidity;BME280_pressure;Samples;Min_cycle;Max_cycle;Signal;HPM_P1;HPM_P2
2022/01/06 00:01:10;;;;;;;4.78;1.00;;;19.40;81.20;;;;;;5031252;28;20060;-64
2022/01/06 00:03:36;;;;;;;5.35;1.02;;;19.40;81.10;;;;;;5030840;28;20037;-65
2022/01/06 00:06:08;;;;;;;5.18;1.13;;;19.40;81.10;;;;;;5030335;28;20096;-64
2022/01/06 00:08:35;;;;;;;6.38;1.25;;;19.40;80.90;;;;;;5022825;28;20068;-64
2022/01/06 00:11:01;;;;;;;5.30;1.10;;;19.40;81.00;;;;;;5011444;28;20506;-65
2022/01/06 00:13:35;;;;;;;4.68;1.30;;;19.40;80.80;;;;;;5022609;28;20029;-65
2022/01/06 00:16:10;;;;;;;4.95;1.10;;;19.40;80.70;;;;;;5030919;28;20381;-64
2022/01/06 00:23:07;;;;;;;4.28;0.95;;;19.40;80.60;;;;;;5023246;28;20164;-65
2022/01/06 00:24:07;;;;;;;5.00;1.30;;;19.40;80.20;;;;;;5029376;28;20399;-65
2022/01/06 00:26:33;;;;;;;5.35;1.00;;;19.40;80.20;;;;;;5024495;28;20029;-65
2022/01/06 00:28:58;;;;;;;4.97;0.98;;;19.40;80.00;;;;;;5024419;28;20018;-65
2022/01/06 00:31:24;;;;;;;6.07;1.30;;;19.40;80.00;;;;;;5022905;28;20458;-65
2022/01/06 00:33:50;;;;;;;4.80;1.20;;;19.40;80.00;;;;;;5024995;28;20032;-66
2022/01/06 00:36:15;;;;;;;5.00;1.00;;;19.40;79.80;;;;;;5022514;28;20033;-65
2022/01/06 00:38:41;;;;;;;5.07;1.02;;;19.40;79.80;;;;;;4995310;28;20502;-65
2022/01/06 00:41:06;;;;;;;5.05;1.20;;;19.40;79.70;;;;;;5032956;28;20159;-65
2022/01/06 00:43:32;;;;;;;4.05;0.88;;;19.40;79.50;;;;;;5026010;28;20075;-65
2022/01/06 00:45:57;;;;;;;5.45;1.10;;;19.50;79.50;;;;;;5022338;28;20041;-69
2022/01/06 00:48:23;;;;;;;4.47;0.93;;;19.50;79.30;;;;;;5016876;28;20017;-65
2022/01/06 00:50:48;;;;;;;5.10;1.00;;;19.50;79.20;;;;;;5000490;28;20029;-66
2022/01/06 00:53:14;;;;;;;6.32;1.30;;;19.50;79.10;;;;;;5028219;28;20025;-65
2022/01/06 00:55:39;;;;;;;5.13;1.15;;;19.50;78.90;;;;;;5023705;28;20040;-64
2022/01/06 00:58:05;;;;;;;4.97;1.10;;;19.50;78.70;;;;;;5006036;28;20111;-65
2022/01/06 01:00:38;;;;;;;3.75;0.90;;;19.40;78.60;;;;;;5005820;28;20030;-65
2022/01/06 01:03:13;;;;;;;4.40;0.90;;;19.50;78.50;;;;;;5005186;28;20022;-64
2022/01/06 01:05:39;;;;;;;5.00;1.00;;;19.50;78.50;;;;;;5024690;28;20045;-65
2022/01/06 01:08:05;;;;;;;6.03;1.20;;;19.50;78.20;;;;;;5005592;28;20025;-65
2022/01/06 01:10:30;;;;;;;4.45;0.90;;;19.50;78.10;;;;;;5006439;28;20040;-65
2022/01/06 01:12:56;;;;;;;4.93;1.10;;;19.50;77.90;;;;;;4989869;28;20037;-64
2022/01/06 01:15:23;;;;;;;4.82;0.98;;;19.50;77.80;;;;;;5022188;28;20056;-65
2022/01/06 01:17:49;;;;;;;4.47;1.20;;;19.50;77.90;;;;;;5005953;28;20033;-66
2022/01/06 01:20:16;;;;;;;4.43;1.00;;;19.50;77.60;;;;;;5022417;28;20036;-65
2022/01/06 01:22:41;;;;;;;4.40;1.08;;;19.50;77.50;;;;;;5007195;28;20025;-64
2022/01/06 01:25:07;;;;;;;5.65;1.08;;;19.60;77.50;;;;;;5021334;28;20498;-65
2022/01/06 01:27:38;;;;;;;4.93;1.10;;;19.50;77.60;;;;;;5023169;28;20033;-64
2022/01/06 01:30:09;;;;;;;5.25;0.98;;;19.50;77.20;;;;;;5022685;28;20132;-64
2022/01/06 01:32:35;;;;;;;;;;;19.50;77.10;;;;;;5023795;28;20026;-65
2022/01/06 01:35:02;;;;;;;4.68;0.90;;;19.50;77.60;;;;;;5020527;28;19912;-65
2022/01/06 01:37:28;;;;;;;5.35;1.00;;;19.60;77.00;;;;;;5022494;28;20040;-64
2022/01/06 01:39:54;;;;;;;5.75;1.00;;;19.60;77.00;;;;;;4991025;28;20048;-64
2022/01/06 01:42:19;;;;;;;4.95;1.00;;;19.50;76.60;;;;;;5022099;28;20487;-64
2022/01/06 01:44:47;;;;;;;4.03;0.82;;;19.50;76.80;;;;;;5020884;28;20452;-64
2022/01/06 01:47:15;;;;;;;4.38;1.05;;;19.60;76.70;;;;;;5022305;28;20376;-64
2022/01/06 01:49:55;;;;;;;5.15;1.10;;;19.60;76.50;;;;;;5024550;28;20022;-64
2022/01/06 01:52:20;;;;;;;4.60;0.90;;;19.60;76.20;;;;;;5023211;28;20369;-65
2022/01/06 01:54:46;;;;;;;5.05;1.23;;;19.60;76.50;;;;;;5005775;28;20105;-65
2022/01/06 01:57:12;;;;;;;4.68;1.10;;;19.60;76.40;;;;;;5021776;28;20552;-65
2022/01/06 01:59:37;;;;;;;4.50;1.00;;;19.60;76.20;;;;;;5020907;28;20068;-63
2022/01/06 02:02:03;;;;;;;4.60;1.10;;;19.60;76.30;;;;;;5006660;28;20091;-64
2022/01/06 02:04:28;;;;;;;4.72;1.00;;;19.60;76.00;;;;;;5004078;28;20038;-64
2022/01/06 02:06:54;;;;;;;4.05;0.98;;;19.60;75.70;;;;;;5021396;28;20028;-65
2022/01/06 02:09:19;;;;;;;4.20;1.00;;;19.60;76.00;;;;;;5021820;28;20449;-64
2022/01/06 02:11:45;;;;;;;4.80;1.08;;;19.60;75.80;;;;;;5023658;28;20052;-64
2022/01/06 02:14:10;;;;;;;5.10;1.10;;;19.60;75.50;;;;;;5021592;28;20056;-65
2022/01/06 02:16:37;;;;;;;4.03;0.90;;;19.60;75.50;;;;;;5024213;28;20451;-64
2022/01/06 02:19:03;;;;;;;6.30;1.02;;;19.60;75.40;;;;;;5022886;28;20685;-64
2022/01/06 02:21:28;;;;;;;4.32;1.00;;;19.70;75.50;;;;;;5020779;28;20030;-64
2022/01/06 02:23:54;;;;;;;4.70;1.00;;;19.70;75.60;;;;;;5021879;28;20025;-65
2022/01/06 02:26:20;;;;;;;4.32;1.00;;;19.60;75.40;;;;;;5025052;28;20017;-64
2022/01/06 02:28:45;;;;;;;5.07;1.30;;;19.60;75.20;;;;;;5021035;28;20368;-64
2022/01/06 02:31:11;;;;;;;4.25;1.20;;;19.70;75.20;;;;;;5022174;28;20040;-65
2022/01/06 02:33:37;;;;;;;5.32;1.15;;;19.70;74.90;;;;;;5020467;28;20033;-64
2022/01/06 02:36:03;;;;;;;5.22;1.25;;;19.60;74.90;;;;;;5022762;28;20032;-64
2022/01/06 02:38:28;;;;;;;4.93;1.27;;;19.70;74.70;;;;;;5023062;28;20508;-65
2022/01/06 02:40:54;;;;;;;4.82;0.95;;;19.60;74.70;;;;;;5004279;28;20069;-64
2022/01/06 02:43:21;;;;;;;4.90;1.10;;;19.60;74.70;;;;;;4962216;28;20031;-65
2022/01/06 02:45:47;;;;;;;5.88;1.10;;;19.70;75.80;;;;;;5054825;28;20025;-65
2022/01/06 02:48:14;;;;;;;5.97;0.90;;;19.60;76.80;;;;;;5026358;28;20078;-65
2022/01/06 02:50:49;;;;;;;5.35;1.13;;;19.60;77.70;;;;;;5045404;28;20020;-64
2022/01/06 02:53:15;;;;;;;5.30;1.00;;;19.60;77.90;;;;;;5045671;28;20500;-63
2022/01/06 02:55:47;;;;;;;5.55;1.02;;;19.60;76.20;;;;;;5037615;28;20025;-64
2022/01/06 02:58:12;;;;;;;3.97;0.80;;;19.70;75.90;;;;;;5040824;28;20061;-65
2022/01/06 03:00:38;;;;;;;5.03;1.10;;;19.70;75.60;;;;;;5043259;28;20120;-65
2022/01/06 03:03:03;;;;;;;6.03;1.20;;;19.70;75.20;;;;;;5040089;28;20022;-65
2022/01/06 03:05:29;;;;;;;4.72;1.02;;;19.70;75.00;;;;;;5045080;28;20029;-64
2022/01/06 03:07:54;;;;;;;3.65;0.80;;;19.70;75.00;;;;;;5044926;28;20386;-64
2022/01/06 03:10:20;;;;;;;4.30;0.80;;;19.70;74.90;;;;;;5046722;28;20052;-64
2022/01/06 03:12:46;;;;;;;4.53;1.05;;;19.70;74.60;;;;;;5044409;28;20040;-64
2022/01/06 03:15:13;;;;;;;4.90;0.93;;;19.70;74.60;;;;;;5045587;28;20021;-64
2022/01/06 03:17:39;;;;;;;4.50;0.90;;;19.70;75.20;;;;;;5044792;28;20033;-64
2022/01/06 03:20:06;;;;;;;4.97;1.05;;;19.70;74.20;;;;;;5041963;28;20040;-65
2022/01/06 03:22:31;;;;;;;5.35;1.08;;;19.70;74.20;;;;;;5042720;28;20448;-64
2022/01/06 03:24:57;;;;;;;4.40;1.00;;;19.70;74.40;;;;;;5045088;28;20025;-64
2022/01/06 03:27:23;;;;;;;5.65;1.30;;;19.70;74.10;;;;;;5045051;28;20021;-64
2022/01/06 03:29:50;;;;;;;4.05;0.90;;;19.80;73.90;;;;;;5035767;28;20163;-64
2022/01/06 03:32:18;;;;;;;5.88;1.20;;;19.70;74.00;;;;;;5044515;28;20070;-64
2022/01/06 03:34:44;;;;;;;6.05;1.23;;;19.80;73.90;;;;;;5043569;28;20513;-65
2022/01/06 03:37:09;;;;;;;4.75;1.00;;;19.70;73.80;;;;;;5043666;28;20065;-63
2022/01/06 03:39:35;;;;;;;4.45;0.95;;;19.80;73.70;;;;;;5044712;28;20023;-65
2022/01/06 03:42:00;;;;;;;5.60;1.17;;;19.70;73.60;;;;;;5043496;28;20069;-64
2022/01/06 03:44:26;;;;;;;4.78;1.00;;;19.80;73.60;;;;;;5042823;28;20052;-64
2022/01/06 03:46:53;;;;;;;3.72;1.00;;;19.80;73.50;;;;;;5044427;28;20049;-64
2022/01/06 03:49:19;;;;;;;5.93;1.10;;;19.80;73.40;;;;;;5043499;28;20017;-64
2022/01/06 03:51:44;;;;;;;5.10;1.10;;;19.80;73.30;;;;;;5045330;28;20025;-64
2022/01/06 03:54:10;;;;;;;4.35;0.82;;;19.80;73.10;;;;;;5044740;28;20503;-64
2022/01/06 03:56:35;;;;;;;4.40;0.90;;;19.70;73.20;;;;;;5044924;28;20029;-64
2022/01/06 03:59:01;;;;;;;4.82;1.15;;;19.80;73.10;;;;;;5041992;28;20037;-64
2022/01/06 04:01:26;;;;;;;4.45;0.98;;;19.80;73.00;;;;;;5027867;28;20111;-65
2022/01/06 04:03:52;;;;;;;4.80;1.20;;;19.80;73.10;;;;;;5043408;28;20130;-65
2022/01/06 04:06:17;;;;;;;4.47;0.90;;;19.80;73.10;;;;;;5044480;28;20479;-65
2022/01/06 04:08:44;;;;;;;4.63;1.17;;;19.80;72.80;;;;;;5044784;28;20032;-64
2022/01/06 04:11:10;;;;;;;5.47;1.00;;;19.80;72.80;;;;;;5043952;28;20040;-64
2022/01/06 04:13:36;;;;;;;5.07;1.08;;;19.80;72.40;;;;;;5041577;28;20025;-65
2022/01/06 04:16:03;;;;;;;5.07;1.00;;;19.80;72.40;;;;;;5043656;28;20060;-63
2022/01/06 04:18:28;;;;;;;5.03;0.90;;;19.80;72.40;;;;;;5046721;28;20490;-64
2022/01/06 04:20:54;;;;;;;4.20;0.90;;;19.80;72.40;;;;;;5045531;28;20095;-64
2022/01/06 04:23:19;;;;;;;4.60;1.30;;;19.80;72.30;;;;;;5042367;28;20969;-64
2022/01/06 04:25:45;;;;;;;4.47;1.00;;;19.80;72.30;;;;;;5042983;28;20077;-63
2022/01/06 04:28:11;;;;;;;4.60;1.10;;;19.80;72.20;;;;;;5044191;28;20498;-65
2022/01/06 04:30:36;;;;;;;5.07;1.20;;;19.80;72.10;;;;;;5043939;28;20486;-65
2022/01/06 04:33:02;;;;;;;4.47;1.00;;;19.80;72.20;;;;;;5044359;28;20108;-64
2022/01/06 04:35:27;;;;;;;4.15;0.80;;;19.80;72.00;;;;;;5042210;28;20398;-64
2022/01/06 04:37:53;;;;;;;4.45;1.00;;;19.80;71.90;;;;;;5045496;28;20055;-64
2022/01/06 04:40:18;;;;;;;4.45;1.00;;;19.80;71.80;;;;;;5044208;28;20513;-64
2022/01/06 04:42:44;;;;;;;4.30;0.90;;;19.80;71.60;;;;;;5043402;28;20112;-64
2022/01/06 04:45:09;;;;;;;4.40;0.80;;;19.80;71.50;;;;;;5031919;22;20056;-64
2022/01/06 04:47:35;;;;;;;5.22;1.23;;;19.80;71.50;;;;;;4970261;28;20030;-63
2022/01/06 04:50:00;;;;;;;4.82;0.88;;;19.80;71.60;;;;;;4970251;28;20030;-63
2022/01/06 04:52:26;;;;;;;5.15;1.00;;;19.80;71.30;;;;;;5004515;28;20113;-63
2022/01/06 04:54:51;;;;;;;4.85;1.00;;;19.80;71.40;;;;;;4992800;28;20043;-63
2022/01/06 04:57:17;;;;;;;4.00;0.90;;;19.80;71.30;;;;;;4986575;28;20149;-64
2022/01/06 04:59:43;;;;;;;5.30;1.00;;;19.80;71.30;;;;;;4985788;28;20036;-64
2022/01/06 05:02:08;;;;;;;3.83;0.80;;;19.80;71.30;;;;;;4985169;28;20038;-64
2022/01/06 05:04:34;;;;;;;3.70;0.70;;;19.80;71.30;;;;;;4952158;28;20093;-65
2022/01/06 05:06:59;;;;;;;4.78;1.00;;;19.80;71.20;;;;;;4986515;28;20034;-64
2022/01/06 05:09:25;;;;;;;5.38;1.10;;;19.80;71.20;;;;;;4988160;28;20023;-63
2022/01/06 05:11:50;;;;;;;4.55;1.25;;;19.80;70.90;;;;;;4968498;28;20492;-64
2022/01/06 05:14:16;;;;;;;4.05;0.82;;;19.80;71.10;;;;;;4983311;28;20038;-63
2022/01/06 05:16:41;;;;;;;4.85;1.10;;;19.80;71.00;;;;;;4967309;28;20492;-63
2022/01/06 05:19:06;;;;;;;6.28;1.02;;;19.80;70.70;;;;;;4986300;28;20038;-63
2022/01/06 05:21:33;;;;;;;4.40;0.98;;;19.80;70.80;;;;;;4984959;28;20073;-63
2022/01/06 05:23:59;;;;;;;5.18;1.05;;;19.80;70.70;;;;;;4984580;28;20023;-63
2022/01/06 05:26:24;;;;;;;3.90;0.80;;;19.80;70.70;;;;;;4985708;28;20049;-64
2022/01/06 05:28:50;;;;;;;3.67;0.80;;;19.80;70.70;;;;;;4969752;28;20050;-64
2022/01/06 05:31:15;;;;;;;4.65;1.00;;;19.80;70.80;;;;;;4985126;28;20042;-63
2022/01/06 05:33:41;;;;;;;4.22;0.90;;;19.80;70.60;;;;;;4983575;28;20142;-63
2022/01/06 05:36:06;;;;;;;3.65;0.85;;;19.80;70.50;;;;;;4985635;28;20030;-63
2022/01/06 05:38:32;;;;;;;4.10;0.90;;;19.80;70.40;;;;;;4982784;28;20031;-64
2022/01/06 05:40:57;;;;;;;5.43;1.02;;;19.80;70.50;;;;;;4985033;28;20026;-63
2022/01/06 05:43:24;;;;;;;4.40;1.02;;;19.80;70.50;;;;;;4984666;28;20030;-63
2022/01/06 05:45:54;;;;;;;4.53;1.02;;;19.80;70.40;;;;;;4985578;28;20030;-63
2022/01/06 05:48:20;;;;;;;3.92;0.75;;;19.80;70.40;;;;;;4985956;28;20503;-63
2022/01/06 05:50:48;;;;;;;3.90;0.85;;;19.80;70.40;;;;;;4968493;28;20030;-64
2022/01/06 05:53:17;;;;;;;4.60;0.80;;;19.90;70.40;;;;;;4954644;28;20041;-63
2022/01/06 05:55:42;;;;;;;4.15;0.90;;;19.80;70.20;;;;;;4968474;28;20018;-63
2022/01/06 05:58:08;;;;;;;4.43;1.15;;;19.80;70.10;;;;;;4986912;28;20507;-62
2022/01/06 06:00:33;;;;;;;4.35;0.80;;;19.80;70.10;;;;;;4988208;28;20026;-63
2022/01/06 06:02:59;;;;;;;4.68;0.93;;;19.80;69.90;;;;;;4967955;28;20034;-63
2022/01/06 06:05:25;;;;;;;4.75;0.80;;;19.90;70.20;;;;;;4983505;28;20105;-63
2022/01/06 06:07:50;;;;;;;4.80;1.02;;;19.90;69.80;;;;;;4985300;28;20044;-63
2022/01/06 06:10:16;;;;;;;4.25;0.85;;;19.90;70.00;;;;;;4986156;28;20123;-63
2022/01/06 06:12:41;;;;;;;5.20;1.17;;;19.80;69.80;;;;;;4969184;28;20505;-64
2022/01/06 06:15:07;;;;;;;4.20;1.00;;;19.90;69.80;;;;;;4984948;28;20118;-64
2022/01/06 06:17:32;;;;;;;5.65;0.90;;;19.90;69.80;;;;;;4986082;28;20030;-63
2022/01/06 06:19:58;;;;;;;3.42;0.90;;;19.90;69.70;;;;;;4985171;28;20061;-64
2022/01/06 06:22:23;;;;;;;4.07;0.98;;;19.80;69.50;;;;;;4991678;28;20015;-64
2022/01/06 06:24:49;;;;;;;4.43;1.08;;;19.90;69.70;;;;;;4990212;28;20030;-63
2022/01/06 06:27:15;;;;;;;4.28;0.90;;;19.90;69.60;;;;;;4992705;28;20480;-63
2022/01/06 06:29:40;;;;;;;4.72;1.02;;;19.90;69.60;;;;;;4988267;28;20026;-63
2022/01/06 06:32:06;;;;;;;4.30;0.80;;;19.90;69.40;;;;;;4989075;28;20057;-64
2022/01/06 06:34:32;;;;;;;4.85;0.90;;;19.90;69.50;;;;;;4969772;28;20038;-64
2022/01/06 06:36:57;;;;;;;4.22;1.05;;;19.80;69.50;;;;;;4988001;28;20092;-64
2022/01/06 06:39:23;;;;;;;4.50;0.90;;;19.90;69.50;;;;;;4969001;28;20551;-66
2022/01/06 06:41:48;;;;;;;6.10;0.90;;;19.80;69.30;;;;;;4991577;28;20536;-63
2022/01/06 06:44:14;;;;;;;4.38;0.98;;;19.80;69.00;;;;;;4995823;28;20029;-63
2022/01/06 06:46:39;;;;;;;5.63;1.08;;;19.80;69.70;;;;;;4998812;28;20388;-64
2022/01/06 06:49:05;;;;;;;12.65;1.30;;;19.80;70.80;;;;;;4995214;28;20029;-64
2022/01/06 06:51:30;;;;;;;5.78;1.23;;;19.80;71.50;;;;;;4998194;28;20030;-63
2022/01/06 06:53:56;;;;;;;4.20;0.90;;;19.80;71.60;;;;;;4992369;28;20030;-64
2022/01/06 06:56:21;;;;;;;7.45;1.15;;;19.70;71.80;;;;;;4997101;28;20034;-64
2022/01/06 06:58:47;;;;;;;7.00;0.90;;;19.80;72.20;;;;;;4998412;28;20014;-62
2022/01/06 07:01:12;;;;;;;7.28;1.63;;;19.80;71.90;;;;;;4995203;28;20022;-64
2022/01/06 07:03:38;;;;;;;6.22;1.23;;;19.80;72.10;;;;;;4979664;28;20593;-65
2022/01/06 07:06:03;;;;;;;5.13;1.00;;;19.80;72.00;;;;;;4976479;28;20044;-64
2022/01/06 07:08:29;;;;;;;4.80;1.20;;;19.80;71.80;;;;;;4998265;28;20148;-64
2022/01/06 07:10:54;;;;;;;7.75;1.00;;;19.80;72.10;;;;;;5002873;28;20069;-65
2022/01/06 07:13:20;;;;;;;5.72;1.00;;;19.70;72.00;;;;;;4993399;28;20100;-64
2022/01/06 07:15:46;;;;;;;6.93;1.00;;;19.70;71.80;;;;;;4999398;28;20562;-64
2022/01/06 07:18:11;;;;;;;5.85;1.15;;;19.70;71.50;;;;;;4991260;28;20030;-63
2022/01/06 07:20:37;;;;;;;5.13;1.20;;;19.70;71.20;;;;;;4980345;28;20034;-64
2022/01/06 07:23:02;;;;;;;3.55;0.80;;;19.70;71.00;;;;;;4991348;28;20030;-64
2022/01/06 07:25:28;;;;;;;4.97;1.10;;;19.70;70.50;;;;;;4992196;28;20041;-64
2022/01/06 07:27:53;;;;;;;6.60;0.93;;;19.70;70.50;;;;;;4993921;28;20472;-63
2022/01/06 07:30:19;;;;;;;4.50;0.90;;;19.70;70.30;;;;;;4993060;28;20019;-65
2022/01/06 07:32:49;;;;;;;6.50;1.13;;;19.70;70.10;;;;;;4969523;28;20456;-64
2022/01/06 07:35:15;;;;;;;7.32;1.60;;;19.60;70.20;;;;;;4968385;28;20058;-64
2022/01/06 07:37:40;;;;;;;7.00;0.93;;;19.70;69.90;;;;;;4992457;28;20117;-65
2022/01/06 07:40:06;;;;;;;4.43;0.80;;;19.70;70.10;;;;;;4986827;28;20103;-64
2022/01/06 07:42:32;;;;;;;6.38;1.00;;;19.70;70.00;;;;;;4999932;28;20396;-65
2022/01/06 07:44:59;;;;;;;4.65;1.10;;;19.80;69.90;;;;;;4979797;28;20503;-64
2022/01/06 07:47:25;;;;;;;5.40;1.00;;;19.80;69.60;;;;;;4984674;28;20388;-65
2022/01/06 07:49:51;;;;;;;6.57;1.05;;;19.80;69.90;;;;;;4981538;28;20030;-65
2022/01/06 07:52:16;;;;;;;4.22;0.90;;;19.80;69.70;;;;;;4995237;28;20063;-65
2022/01/06 07:54:42;;;;;;;7.25;1.15;;;19.80;69.20;;;;;;4991891;28;20029;-63
2022/01/06 07:57:08;;;;;;;6.10;0.90;;;19.80;69.30;;;;;;4975782;28;20073;-65
2022/01/06 07:59:33;;;;;;;5.10;0.88;;;19.80;69.50;;;;;;4993863;28;20019;-65
2022/01/06 08:01:59;;;;;;;5.78;1.30;;;19.80;69.40;;;;;;4992349;28;20080;-64
2022/01/06 08:04:24;;;;;;;4.65;1.02;;;19.80;69.40;;;;;;4991698;28;20061;-63
2022/01/06 08:06:50;;;;;;;4.93;1.00;;;19.70;69.90;;;;;;4992741;28;20022;-64
2022/01/06 08:09:15;;;;;;;5.75;1.08;;;19.60;68.90;;;;;;4993012;28;20030;-65
2022/01/06 08:11:41;;;;;;;4.03;0.93;;;19.60;66.60;;;;;;4993252;28;20057;-64
2022/01/06 08:14:06;;;;;;;4.97;0.90;;;19.50;66.10;;;;;;4990786;28;20107;-65
2022/01/06 08:16:32;;;;;;;4.55;1.10;;;19.50;66.20;;;;;;4991762;28;20029;-65
2022/01/06 08:18:57;;;;;;;5.53;0.90;;;19.50;66.20;;;;;;4975768;28;20029;-65
2022/01/06 08:21:23;;;;;;;4.93;1.10;;;19.50;65.90;;;;;;4991931;28;20031;-65
2022/01/06 08:23:48;;;;;;;6.53;1.10;;;19.50;65.50;;;;;;4992140;28;20483;-65
2022/01/06 08:26:14;;;;;;;4.68;1.05;;;19.50;65.70;;;;;;4992558;28;20062;-65
2022/01/06 08:28:39;;;;;;;4.75;1.00;;;19.50;65.70;;;;;;4992505;28;20033;-64
2022/01/06 08:31:05;;;;;;;5.15;1.00;;;19.50;65.80;;;;;;4992303;28;20496;-64
2022/01/06 08:33:30;;;;;;;6.85;1.05;;;19.50;66.00;;;;;;4990314;28;20058;-64
2022/01/06 08:35:56;;;;;;;6.40;1.10;;;19.60;65.90;;;;;;4992817;28;20129;-65
2022/01/06 08:38:22;;;;;;;4.88;1.00;;;19.70;65.80;;;;;;4992426;28;20370;-66
2022/01/06 08:40:47;;;;;;;5.95;1.25;;;19.70;65.60;;;;;;4991333;28;20026;-66
2022/01/06 08:43:13;;;;;;;6.28;0.95;;;19.70;65.70;;;;;;4991093;28;20492;-65
2022/01/06 08:45:39;;;;;;;4.95;1.00;;;19.70;65.50;;;;;;4990246;28;20026;-66
2022/01/06 08:48:04;;;;;;;5.15;0.88;;;19.70;65.30;;;;;;4991803;28;20034;-64
2022/01/06 08:50:30;;;;;;;4.80;0.90;;;19.70;65.20;;;;;;4987417;28;20034;-65
2022/01/06 08:52:56;;;;;;;4.55;1.15;;;19.70;65.00;;;;;;4992227;28;20043;-64
2022/01/06 08:55:22;;;;;;;5.32;1.00;;;19.70;65.30;;;;;;4989452;28;20153;-64
2022/01/06 08:57:47;;;;;;;5.78;0.90;;;19.70;65.20;;;;;;4992733;28;20026;-63
2022/01/06 09:00:13;;;;;;;7.22;1.20;;;19.70;65.20;;;;;;4991840;28;20566;-63
2022/01/06 09:02:39;;;;;;;5.30;0.90;;;19.70;66.50;;;;;;4990097;28;20034;-63
2022/01/06 09:05:06;;;;;;;7.28;1.30;;;19.70;65.40;;;;;;4977349;28;20400;-64
2022/01/06 09:07:34;;;;;;;7.95;1.70;;;19.60;65.00;;;;;;4991646;28;20022;-63
2022/01/06 09:10:00;;;;;;;4.82;1.17;;;19.60;65.60;;;;;;4992161;28;20113;-63
2022/01/06 09:12:26;;;;;;;6.57;1.10;;;19.60;65.40;;;;;;4970139;28;20154;-63
2022/01/06 09:14:51;;;;;;;6.00;0.90;;;19.60;65.20;;;;;;4989099;28;20559;-63
2022/01/06 09:17:17;;;;;;;5.43;1.20;;;19.50;64.80;;;;;;4992546;28;20093;-64
2022/01/06 09:19:43;;;;;;;6.30;0.90;;;19.50;64.60;;;;;;4974733;28;20018;-64
2022/01/06 09:22:08;;;;;;;6.18;1.50;;;19.50;64.60;;;;;;4990464;28;20514;-65
2022/01/06 09:24:34;;;;;;;5.25;1.30;;;19.50;64.50;;;;;;4989833;28;20130;-64
2022/01/06 09:26:59;;;;;;;5.95;1.17;;;19.50;64.50;;;;;;4992074;28;20488;-64
2022/01/06 09:29:25;;;;;;;6.13;1.10;;;19.50;64.40;;;;;;4990779;28;20514;-63
2022/01/06 09:31:50;;;;;;;6.18;1.30;;;19.50;64.30;;;;;;4991817;28;20026;-64
2022/01/06 09:34:16;;;;;;;4.53;1.13;;;19.50;64.20;;;;;;4989760;28;20027;-64
2022/01/06 09:36:42;;;;;;;5.07;0.95;;;19.50;64.20;;;;;;4992424;28;20097;-64
2022/01/06 09:39:09;;;;;;;4.53;1.00;;;19.50;64.10;;;;;;4972871;28;20085;-62
2022/01/06 09:41:35;;;;;;;4.85;1.15;;;19.50;64.10;;;;;;4965985;28;20046;-63
2022/01/06 09:44:00;;;;;;;6.93;1.30;;;19.50;64.00;;;;;;4969895;28;20791;-63
2022/01/06 09:46:26;;;;;;;6.13;1.20;;;19.40;63.80;;;;;;4992024;28;20022;-63
2022/01/06 09:48:55;;;;;;;5.38;1.30;;;19.40;63.70;;;;;;4972353;28;20027;-62
2022/01/06 09:51:20;;;;;;;5.75;1.00;;;19.40;65.10;;;;;;4972895;28;20042;-63
2022/01/06 09:53:48;;;;;;;7.13;1.23;;;19.50;65.20;;;;;;4989125;28;20033;-63
2022/01/06 09:56:14;;;;;;;7.13;1.58;;;19.50;65.40;;;;;;4966352;28;20017;-64
2022/01/06 09:58:39;;;;;;;5.75;1.33;;;19.50;65.20;;;;;;4990123;28;20010;-63
2022/01/06 10:01:05;;;;;;;6.45;1.20;;;19.60;65.60;;;;;;4973565;28;20519;-63
2022/01/06 10:03:37;;;;;;;5.70;1.23;;;19.60;65.30;;;;;;4999637;28;20027;-62
2022/01/06 10:06:10;;;;;;;6.03;1.05;;;19.60;65.40;;;;;;4992559;28;20034;-62
2022/01/06 10:08:36;;;;;;;6.82;1.30;;;19.60;65.70;;;;;;4975797;28;20554;-63
2022/01/06 10:11:13;;;;;;;5.50;0.90;;;19.60;65.70;;;;;;4957261;28;20038;-63
2022/01/06 10:13:39;;;;;;;8.02;1.23;;;19.60;65.60;;;;;;4953776;28;20030;-63
2022/01/06 10:16:20;;;;;;;8.65;1.20;;;19.60;65.70;;;;;;4990625;28;20484;-63
2022/01/06 10:19:13;;;;;;;9.65;1.58;;;19.60;65.90;;;;;;4973369;28;20041;-62
2022/01/06 10:21:43;;;;;;;7.68;1.60;;;19.70;67.40;;;;;;4966317;28;20109;-65
2022/01/06 10:24:14;;;;;;;6.35;1.40;;;19.80;68.40;;;;;;4987450;28;20392;-65
2022/01/06 10:40:26;;;;;;;9.27;1.60;;;;;;;;;;5117775;27;20402;-65
2022/01/06 10:42:53;;;;;;;7.63;1.70;;;;;;;;;;5113186;27;20044;-68
2022/01/06 10:45:23;;;;;;;8.40;1.50;;;;;;;;;;5065908;28;20057;-67
2022/01/06 10:47:52;;;;;;;5.72;1.55;;;;;;;;;;5062748;28;20365;-66
2022/01/06 10:50:19;;;;;;;10.07;1.90;;;;;;;;;;5065476;28;20076;-66
2022/01/06 10:52:46;;;;;;;7.55;1.50;;;;;;;;;;5056017;28;78638;-65
2022/01/06 10:55:15;;;;;;;8.90;1.83;;;;;;;;;;5052299;28;20056;-64
2022/01/06 10:57:51;;;;;;;8.05;1.85;;;;;;;;;;5054343;28;20497;-63
2022/01/06 11:00:18;;;;;;;8.65;1.90;;;;;;;;;;5062552;28;20108;-63
2022/01/06 11:02:44;;;;;;;7.38;1.80;;;;;;;;;;5051868;28;20024;-63
2022/01/06 11:05:10;;;;;;;8.15;1.75;;;;;;;;;;5065409;28;20058;-64
2022/01/06 11:07:36;;;;;;;7.13;1.73;;;;;;;;;;5065472;28;20048;-62
2022/01/06 11:10:05;;;;;;;6.22;1.30;;;;;;;;;;5063644;28;20025;-63
2022/01/06 11:12:33;;;;;;;6.55;1.48;;;;;;;;;;5066569;28;20062;-62
2022/01/06 11:15:00;;;;;;;8.57;1.90;;;;;;;;;;5062272;28;20482;-63
2022/01/06 11:17:26;;;;;;;10.65;1.90;;;;;;;;;;5064738;28;20465;-63
2022/01/06 11:19:52;;;;;;;8.50;1.52;;;;;;;;;;5062491;28;20041;-65
2022/01/06 11:22:23;;;;;;;6.30;1.80;;;;;;;;;;5063969;28;20029;-63
2022/01/06 11:24:53;;;;;;;9.20;1.95;;;;;;;;;;5066054;28;20059;-63
2022/01/06 11:27:28;;;;;;;8.70;1.85;;;;;;;;;;5063848;28;20883;-63
2022/01/06 11:29:54;;;;;;;9.35;2.10;;;;;;;;;;5062257;28;20056;-62
2022/01/06 11:32:21;;;;;;;8.07;1.45;;;;;;;;;;5061126;28;20063;-62
2022/01/06 12:06:07;;;;;;;8.50;2.45;;;39.30;24.50;;;;;;5044369;27;20465;-78
2022/01/06 12:08:39;;;;;;;8.38;2.40;;;25.80;43.70;;;;;;5043000;28;20425;-76
2022/01/06 12:11:05;;;;;;;7.22;1.83;;;22.70;52.40;;;;;;5054074;28;20160;-76
2022/01/06 12:13:42;;;;;;;7.28;2.10;;;21.40;60.50;;;;;;5046175;28;20104;-76
2022/01/06 12:16:07;;;;;;;7.25;2.20;;;20.80;66.60;;;;;;5048389;28;20557;-77
2022/01/06 12:18:35;;;;;;;7.70;2.10;;;20.50;71.70;;;;;;5066746;28;20029;-76
2022/01/06 12:21:01;;;;;;;7.65;2.10;;;20.30;75.30;;;;;;5065358;28;20429;-77
2022/01/06 12:23:30;;;;;;;26.55;3.78;;;20.20;99.90;;;;;;5064685;28;20025;-76
2022/01/06 12:25:58;;;;;;;6.95;1.90;;;20.90;92.50;;;;;;5066124;28;20041;-76
2022/01/06 12:38:49;;;;;;;8.55;1.63;;;21.50;89.50;;;;;;5083791;27;20468;-74
2022/01/06 12:41:17;;;;;;;6.68;1.58;;;21.50;82.20;;;;;;5040456;28;20041;-80
2022/01/06 12:43:44;;;;;;;6.93;1.40;;;21.40;82.60;;;;;;5044723;28;20100;-70
2022/01/06 12:46:50;;;;;;;6.47;1.38;;;21.20;78.40;;;;;;5055292;27;20909;-69
2022/01/06 12:49:19;;;;;;;9.77;1.27;;;20.90;89.30;;;;;;5032176;28;20442;-70
2022/01/06 12:51:46;;;;;;;6.50;1.20;;;20.80;89.10;;;;;;5047351;28;20025;-69
2022/01/06 12:54:18;;;;;;;5.38;0.95;;;20.60;88.50;;;;;;5043696;28;20076;-68
2022/01/06 12:56:49;;;;;;;5.20;0.95;;;20.50;86.60;;;;;;5043828;28;20055;-68
2022/01/06 12:59:24;;;;;;;7.43;1.13;;;20.40;85.50;;;;;;5044572;28;20495;-69
2022/01/06 13:02:03;;;;;;;5.25;1.13;;;20.30;88.40;;;;;;5047937;28;20025;-69
2022/01/06 13:04:30;;;;;;;4.55;0.80;;;20.20;87.50;;;;;;5043533;28;20041;-68
2022/01/06 13:06:58;;;;;;;6.32;1.52;;;20.10;89.20;;;;;;5045394;28;20460;-68
2022/01/06 13:09:26;;;;;;;4.82;0.90;;;20.10;89.60;;;;;;5046329;28;20452;-70
2022/01/06 13:11:54;;;;;;;3.92;0.85;;;20.20;90.90;;;;;;5063517;28;20493;-71
2022/01/06 13:14:27;;;;;;;7.75;1.13;;;20.20;90.20;;;;;;5064538;28;20554;-70
2022/01/06 13:17:04;;;;;;;10.50;1.10;;;20.00;86.70;;;;;;5060950;28;20033;-70
2022/01/06 13:19:29;;;;;;;4.65;0.90;;;19.90;90.20;;;;;;5066073;28;20029;-71
2022/01/06 13:22:02;;;;;;;5.63;1.00;;;19.80;90.50;;;;;;5072003;28;20925;-71
2022/01/06 13:24:31;;;;;;;6.38;1.13;;;19.70;90.80;;;;;;5073132;28;20020;-71
2022/01/06 13:27:01;;;;;;;5.20;1.20;;;19.60;90.70;;;;;;5072550;28;20040;-69
2022/01/06 13:29:32;;;;;;;4.95;0.98;;;19.60;90.90;;;;;;5066645;28;20111;-70
2022/01/06 13:32:07;;;;;;;4.38;0.90;;;19.50;91.20;;;;;;5062689;28;20100;-70
2022/01/06 13:34:34;;;;;;;4.50;0.90;;;19.40;90.90;;;;;;5065078;28;20028;-70
2022/01/06 13:37:07;;;;;;;4.78;1.05;;;19.40;91.50;;;;;;5060823;28;20053;-70
2022/01/06 13:39:47;;;;;;;6.25;1.13;;;19.50;90.80;;;;;;5062278;28;20041;-71
2022/01/06 13:42:32;;;;;;;5.15;1.20;;;19.40;91.20;;;;;;5062601;28;20440;-70
2022/01/06 13:45:13;;;;;;;7.85;1.00;;;19.40;90.70;;;;;;5071274;28;20037;-72
2022/01/06 13:47:58;;;;;;;5.68;1.17;;;19.50;93.70;;;;;;5064088;28;20048;-72
2022/01/06 13:53:30;;;;;;;6.20;1.20;;;19.60;92.10;;;;;;5062496;28;20051;-73